< < Back
Terminal Aerodrome Forecast


Current Version              Previous Versions:   1  2  3  4  5  6  7  8  9  

Terminal Aerodrome Forecast

581
FTUS42 KFFC 070541
TAFFTY
TAF
KFTY 070541Z 0706/0806 23004KT P6SM FEW200
     FM071600 27006KT P6SM FEW050
     FM080200 26005KT P6SM FEW150=

Latest METAR

193
SAUS70 KWBC 080600 RRA
MTRFTY
METAR KFTY 080553Z AUTO 00000KT 10SM CLR 25/22 A3016 RMK AO2 SLP201
T02500217 10306 20250 58001


USA.gov is the U.S. government's official web portal to all federal, state and local government web resources and services.